sensor_id;sensor_type;location;lat;lon;timestamp;temperature;humidity
75961;SHT30;64644;48.914;2.254;2023-05-07T00:01:48;17.65;75.14
75961;SHT30;64644;48.914;2.254;2023-05-07T00:04:14;17.65;75.38
75961;SHT30;64644;48.914;2.254;2023-05-07T00:06:39;17.66;75.46
75961;SHT30;64644;48.914;2.254;2023-05-07T00:09:05;17.65;75.49
75961;SHT30;64644;48.914;2.254;2023-05-07T00:11:31;17.66;75.59
75961;SHT30;64644;48.914;2.254;2023-05-07T00:13:56;17.68;75.57
75961;SHT30;64644;48.914;2.254;2023-05-07T00:16:22;17.65;75.49
75961;SHT30;64644;48.914;2.254;2023-05-07T00:18:47;17.63;75.71
75961;SHT30;64644;48.914;2.254;2023-05-07T00:21:13;17.65;75.84
75961;SHT30;64644;48.914;2.254;2023-05-07T00:23:38;17.66;75.98
75961;SHT30;64644;48.914;2.254;2023-05-07T00:26:04;17.65;75.92
75961;SHT30;64644;48.914;2.254;2023-05-07T00:28:29;17.68;75.79
75961;SHT30;64644;48.914;2.254;2023-05-07T00:30:55;17.65;76.08
75961;SHT30;64644;48.914;2.254;2023-05-07T00:33:20;17.65;76.05
75961;SHT30;64644;48.914;2.254;2023-05-07T00:35:47;17.66;76.12
75961;SHT30;64644;48.914;2.254;2023-05-07T00:38:12;17.65;76.02
75961;SHT30;64644;48.914;2.254;2023-05-07T00:40:38;17.63;75.70
75961;SHT30;64644;48.914;2.254;2023-05-07T00:43:03;17.61;76.09
75961;SHT30;64644;48.914;2.254;2023-05-07T00:45:29;17.61;76.19
75961;SHT30;64644;48.914;2.254;2023-05-07T00:47:59;17.61;76.30
75961;SHT30;64644;48.914;2.254;2023-05-07T00:50:26;17.59;76.19
75961;SHT30;64644;48.914;2.254;2023-05-07T00:52:52;17.59;76.47
75961;SHT30;64644;48.914;2.254;2023-05-07T00:55:18;17.59;76.63
75961;SHT30;64644;48.914;2.254;2023-05-07T00:57:43;17.63;76.60
75961;SHT30;64644;48.914;2.254;2023-05-07T01:00:10;17.61;76.64
75961;SHT30;64644;48.914;2.254;2023-05-07T01:02:40;17.62;76.51
75961;SHT30;64644;48.914;2.254;2023-05-07T01:05:08;17.63;76.58
75961;SHT30;64644;48.914;2.254;2023-05-07T01:07:35;17.62;76.29
75961;SHT30;64644;48.914;2.254;2023-05-07T01:10:02;17.63;76.70
75961;SHT30;64644;48.914;2.254;2023-05-07T01:12:28;17.65;76.56
75961;SHT30;64644;48.914;2.254;2023-05-07T01:14:54;17.65;76.77
75961;SHT30;64644;48.914;2.254;2023-05-07T01:17:20;17.66;76.88
75961;SHT30;64644;48.914;2.254;2023-05-07T01:19:45;17.65;76.88
75961;SHT30;64644;48.914;2.254;2023-05-07T01:22:13;17.68;76.96
75961;SHT30;64644;48.914;2.254;2023-05-07T01:24:41;17.69;76.63
75961;SHT30;64644;48.914;2.254;2023-05-07T01:27:06;17.68;76.63
75961;SHT30;64644;48.914;2.254;2023-05-07T01:29:32;17.65;76.40
75961;SHT30;64644;48.914;2.254;2023-05-07T01:31:59;17.65;76.55
75961;SHT30;64644;48.914;2.254;2023-05-07T01:34:27;17.65;76.51
75961;SHT30;64644;48.914;2.254;2023-05-07T01:36:54;17.69;76.16
75961;SHT30;64644;48.914;2.254;2023-05-07T01:39:22;17.66;75.94
75961;SHT30;64644;48.914;2.254;2023-05-07T01:41:49;17.61;75.82
75961;SHT30;64644;48.914;2.254;2023-05-07T01:44:15;17.58;75.99
75961;SHT30;64644;48.914;2.254;2023-05-07T01:46:41;17.55;76.00
75961;SHT30;64644;48.914;2.254;2023-05-07T01:49:07;17.54;75.76
75961;SHT30;64644;48.914;2.254;2023-05-07T01:51:33;17.51;76.08
75961;SHT30;64644;48.914;2.254;2023-05-07T01:53:59;17.49;75.84
75961;SHT30;64644;48.914;2.254;2023-05-07T01:56:25;17.49;75.87
75961;SHT30;64644;48.914;2.254;2023-05-07T01:58:50;17.46;76.41
75961;SHT30;64644;48.914;2.254;2023-05-07T02:01:17;17.49;76.32
75961;SHT30;64644;48.914;2.254;2023-05-07T02:03:43;17.46;76.25
75961;SHT30;64644;48.914;2.254;2023-05-07T02:06:08;17.49;76.54
75961;SHT30;64644;48.914;2.254;2023-05-07T02:08:34;17.49;76.53
75961;SHT30;64644;48.914;2.254;2023-05-07T02:10:59;17.49;76.62
75961;SHT30;64644;48.914;2.254;2023-05-07T02:13:26;17.49;76.61
75961;SHT30;64644;48.914;2.254;2023-05-07T02:15:52;17.49;76.59
75961;SHT30;64644;48.914;2.254;2023-05-07T02:18:18;17.49;76.59
75961;SHT30;64644;48.914;2.254;2023-05-07T02:20:44;17.51;76.61
75961;SHT30;64644;48.914;2.254;2023-05-07T02:23:09;17.49;76.69
75961;SHT30;64644;48.914;2.254;2023-05-07T02:25:34;17.52;76.70
75961;SHT30;64644;48.914;2.254;2023-05-07T02:28:00;17.54;76.69
75961;SHT30;64644;48.914;2.254;2023-05-07T02:30:25;17.49;76.74
75961;SHT30;64644;48.914;2.254;2023-05-07T02:32:51;17.54;76.86
75961;SHT30;64644;48.914;2.254;2023-05-07T02:35:16;17.56;76.85
75961;SHT30;64644;48.914;2.254;2023-05-07T02:37:42;17.58;76.40
75961;SHT30;64644;48.914;2.254;2023-05-07T02:40:08;17.55;76.52
75961;SHT30;64644;48.914;2.254;2023-05-07T02:42:33;17.54;76.68
75961;SHT30;64644;48.914;2.254;2023-05-07T02:44:59;17.55;76.79
75961;SHT30;64644;48.914;2.254;2023-05-07T02:47:24;17.54;76.90
75961;SHT30;64644;48.914;2.254;2023-05-07T02:49:53;17.55;76.92
75961;SHT30;64644;48.914;2.254;2023-05-07T02:52:18;17.55;76.98
75961;SHT30;64644;48.914;2.254;2023-05-07T02:54:43;17.55;76.94
75961;SHT30;64644;48.914;2.254;2023-05-07T02:57:09;17.55;76.96
75961;SHT30;64644;48.914;2.254;2023-05-07T02:59:34;17.55;76.97
75961;SHT30;64644;48.914;2.254;2023-05-07T03:01:59;17.55;76.96
75961;SHT30;64644;48.914;2.254;2023-05-07T03:04:25;17.58;76.95
75961;SHT30;64644;48.914;2.254;2023-05-07T03:06:50;17.55;77.00
75961;SHT30;64644;48.914;2.254;2023-05-07T03:09:16;17.56;76.97
75961;SHT30;64644;48.914;2.254;2023-05-07T03:11:41;17.55;77.01
75961;SHT30;64644;48.914;2.254;2023-05-07T03:14:07;17.56;77.01
75961;SHT30;64644;48.914;2.254;2023-05-07T03:16:32;17.54;77.06
75961;SHT30;64644;48.914;2.254;2023-05-07T03:18:58;17.52;77.09
75961;SHT30;64644;48.914;2.254;2023-05-07T03:21:23;17.52;77.05
75961;SHT30;64644;48.914;2.254;2023-05-07T03:23:48;17.51;77.01
75961;SHT30;64644;48.914;2.254;2023-05-07T03:26:14;17.51;77.00
75961;SHT30;64644;48.914;2.254;2023-05-07T03:28:39;17.52;76.92
75961;SHT30;64644;48.914;2.254;2023-05-07T03:31:04;17.52;76.92
75961;SHT30;64644;48.914;2.254;2023-05-07T03:33:33;17.52;77.01
75961;SHT30;64644;48.914;2.254;2023-05-07T03:35:58;17.49;76.97
75961;SHT30;64644;48.914;2.254;2023-05-07T03:38:24;17.51;76.95
75961;SHT30;64644;48.914;2.254;2023-05-07T03:40:49;17.51;76.94
75961;SHT30;64644;48.914;2.254;2023-05-07T03:43:15;17.51;76.89
75961;SHT30;64644;48.914;2.254;2023-05-07T03:45:40;17.49;76.64
75961;SHT30;64644;48.914;2.254;2023-05-07T03:48:05;17.45;76.48
75961;SHT30;64644;48.914;2.254;2023-05-07T03:50:31;17.44;76.56
75961;SHT30;64644;48.914;2.254;2023-05-07T03:52:56;17.42;76.60
75961;SHT30;64644;48.914;2.254;2023-05-07T03:55:21;17.42;76.56
75961;SHT30;64644;48.914;2.254;2023-05-07T03:57:47;17.39;76.66
75961;SHT30;64644;48.914;2.254;2023-05-07T04:00:13;17.39;76.76
75961;SHT30;64644;48.914;2.254;2023-05-07T04:02:38;17.38;76.64
75961;SHT30;64644;48.914;2.254;2023-05-07T04:05:04;17.37;76.72
75961;SHT30;64644;48.914;2.254;2023-05-07T04:07:29;17.35;76.69
75961;SHT30;64644;48.914;2.254;2023-05-07T04:09:54;17.37;76.72
75961;SHT30;64644;48.914;2.254;2023-05-07T04:12:20;17.37;76.80
75961;SHT30;64644;48.914;2.254;2023-05-07T04:14:45;17.37;76.82
75961;SHT30;64644;48.914;2.254;2023-05-07T04:17:10;17.38;76.89
75961;SHT30;64644;48.914;2.254;2023-05-07T04:19:36;17.32;76.94
75961;SHT30;64644;48.914;2.254;2023-05-07T04:22:01;17.35;76.95
75961;SHT30;64644;48.914;2.254;2023-05-07T04:24:26;17.34;77.03
75961;SHT30;64644;48.914;2.254;2023-05-07T04:26:52;17.32;77.10
75961;SHT30;64644;48.914;2.254;2023-05-07T04:29:18;17.31;77.19
75961;SHT30;64644;48.914;2.254;2023-05-07T04:31:43;17.31;77.28
75961;SHT30;64644;48.914;2.254;2023-05-07T04:34:10;17.31;77.27
75961;SHT30;64644;48.914;2.254;2023-05-07T04:36:37;17.30;77.27
75961;SHT30;64644;48.914;2.254;2023-05-07T04:39:03;17.28;77.35
75961;SHT30;64644;48.914;2.254;2023-05-07T04:41:28;17.27;77.39
75961;SHT30;64644;48.914;2.254;2023-05-07T04:43:54;17.26;77.41
75961;SHT30;64644;48.914;2.254;2023-05-07T04:46:19;17.26;77.36
75961;SHT30;64644;48.914;2.254;2023-05-07T04:48:45;17.27;77.36
75961;SHT30;64644;48.914;2.254;2023-05-07T04:51:10;17.28;77.39
75961;SHT30;64644;48.914;2.254;2023-05-07T04:53:36;17.26;77.34
75961;SHT30;64644;48.914;2.254;2023-05-07T04:56:02;17.24;77.32
75961;SHT30;64644;48.914;2.254;2023-05-07T04:58:27;17.26;77.30
75961;SHT30;64644;48.914;2.254;2023-05-07T05:00:56;17.21;77.36
75961;SHT30;64644;48.914;2.254;2023-05-07T05:03:22;17.21;77.41
75961;SHT30;64644;48.914;2.254;2023-05-07T05:05:49;17.23;77.44
75961;SHT30;64644;48.914;2.254;2023-05-07T05:08:14;17.21;77.32
75961;SHT30;64644;48.914;2.254;2023-05-07T05:10:39;17.20;77.13
75961;SHT30;64644;48.914;2.254;2023-05-07T05:13:06;17.23;77.09
75961;SHT30;64644;48.914;2.254;2023-05-07T05:15:32;17.23;77.10
75961;SHT30;64644;48.914;2.254;2023-05-07T05:17:57;17.23;77.15
75961;SHT30;64644;48.914;2.254;2023-05-07T05:20:22;17.21;77.05
75961;SHT30;64644;48.914;2.254;2023-05-07T05:22:48;17.21;77.16
75961;SHT30;64644;48.914;2.254;2023-05-07T05:25:13;17.24;77.20
75961;SHT30;64644;48.914;2.254;2023-05-07T05:27:39;17.24;77.13
75961;SHT30;64644;48.914;2.254;2023-05-07T05:30:05;17.23;77.25
75961;SHT30;64644;48.914;2.254;2023-05-07T05:32:30;17.24;77.25
75961;SHT30;64644;48.914;2.254;2023-05-07T05:34:56;17.24;77.24
75961;SHT30;64644;48.914;2.254;2023-05-07T05:37:21;17.23;77.33
75961;SHT30;64644;48.914;2.254;2023-05-07T05:39:47;17.24;77.37
75961;SHT30;64644;48.914;2.254;2023-05-07T05:42:12;17.27;77.39
75961;SHT30;64644;48.914;2.254;2023-05-07T05:44:37;17.24;77.49
75961;SHT30;64644;48.914;2.254;2023-05-07T05:47:03;17.26;77.40
75961;SHT30;64644;48.914;2.254;2023-05-07T05:49:28;17.24;76.82
75961;SHT30;64644;48.914;2.254;2023-05-07T05:51:54;17.23;76.81
75961;SHT30;64644;48.914;2.254;2023-05-07T05:54:20;17.18;76.58
75961;SHT30;64644;48.914;2.254;2023-05-07T05:56:46;17.21;76.57
75961;SHT30;64644;48.914;2.254;2023-05-07T05:59:11;17.21;76.77
75961;SHT30;64644;48.914;2.254;2023-05-07T06:01:37;17.18;76.94
75961;SHT30;64644;48.914;2.254;2023-05-07T06:04:03;17.20;76.39
75961;SHT30;64644;48.914;2.254;2023-05-07T06:06:29;17.18;76.45
75961;SHT30;64644;48.914;2.254;2023-05-07T06:08:54;17.18;76.74
75961;SHT30;64644;48.914;2.254;2023-05-07T06:11:19;17.20;77.05
75961;SHT30;64644;48.914;2.254;2023-05-07T06:13:45;17.18;76.83
75961;SHT30;64644;48.914;2.254;2023-05-07T06:16:10;17.23;76.93
75961;SHT30;64644;48.914;2.254;2023-05-07T06:18:35;17.26;76.93
75961;SHT30;64644;48.914;2.254;2023-05-07T06:21:01;17.26;77.04
75961;SHT30;64644;48.914;2.254;2023-05-07T06:23:27;17.28;77.15
75961;SHT30;64644;48.914;2.254;2023-05-07T06:25:52;17.28;77.15
75961;SHT30;64644;48.914;2.254;2023-05-07T06:28:17;17.28;76.79
75961;SHT30;64644;48.914;2.254;2023-05-07T06:30:43;17.27;76.67
75961;SHT30;64644;48.914;2.254;2023-05-07T06:33:08;17.28;76.73
75961;SHT30;64644;48.914;2.254;2023-05-07T06:35:34;17.30;76.94
75961;SHT30;64644;48.914;2.254;2023-05-07T06:37:59;17.34;76.84
75961;SHT30;64644;48.914;2.254;2023-05-07T06:40:25;17.32;76.65
75961;SHT30;64644;48.914;2.254;2023-05-07T06:42:50;17.35;76.63
75961;SHT30;64644;48.914;2.254;2023-05-07T06:45:16;17.38;76.79
75961;SHT30;64644;48.914;2.254;2023-05-07T06:47:41;17.37;76.23
75961;SHT30;64644;48.914;2.254;2023-05-07T06:50:07;17.41;76.46
75961;SHT30;64644;48.914;2.254;2023-05-07T06:52:32;17.41;76.64
75961;SHT30;64644;48.914;2.254;2023-05-07T06:54:59;17.41;76.28
75961;SHT30;64644;48.914;2.254;2023-05-07T06:57:24;17.44;76.24
75961;SHT30;64644;48.914;2.254;2023-05-07T06:59:50;17.42;76.58
75961;SHT30;64644;48.914;2.254;2023-05-07T07:02:15;17.44;76.66
75961;SHT30;64644;48.914;2.254;2023-05-07T07:04:41;17.48;76.87
75961;SHT30;64644;48.914;2.254;2023-05-07T07:07:07;17.48;77.10
75961;SHT30;64644;48.914;2.254;2023-05-07T07:09:32;17.49;77.09
75961;SHT30;64644;48.914;2.254;2023-05-07T07:11:57;17.49;76.95
75961;SHT30;64644;48.914;2.254;2023-05-07T07:14:24;17.52;76.90
75961;SHT30;64644;48.914;2.254;2023-05-07T07:16:49;17.54;76.71
75961;SHT30;64644;48.914;2.254;2023-05-07T07:19:15;17.54;76.90
75961;SHT30;64644;48.914;2.254;2023-05-07T07:21:41;17.55;77.09
75961;SHT30;64644;48.914;2.254;2023-05-07T07:24:07;17.56;77.12
75961;SHT30;64644;48.914;2.254;2023-05-07T07:26:32;17.58;77.06
75961;SHT30;64644;48.914;2.254;2023-05-07T07:28:58;17.61;76.53
75961;SHT30;64644;48.914;2.254;2023-05-07T07:31:23;17.56;76.45
75961;SHT30;64644;48.914;2.254;2023-05-07T07:33:48;17.59;76.52
75961;SHT30;64644;48.914;2.254;2023-05-07T07:36:15;17.58;76.82
75961;SHT30;64644;48.914;2.254;2023-05-07T07:38:40;17.58;76.98
75961;SHT30;64644;48.914;2.254;2023-05-07T07:41:08;17.58;76.86
75961;SHT30;64644;48.914;2.254;2023-05-07T07:43:33;17.62;76.89
75961;SHT30;64644;48.914;2.254;2023-05-07T07:45:59;17.62;76.88
75961;SHT30;64644;48.914;2.254;2023-05-07T07:48:24;17.62;77.04
75961;SHT30;64644;48.914;2.254;2023-05-07T07:50:50;17.65;77.13
75961;SHT30;64644;48.914;2.254;2023-05-07T07:53:16;17.66;77.21
75961;SHT30;64644;48.914;2.254;2023-05-07T07:55:42;17.69;77.23
75961;SHT30;64644;48.914;2.254;2023-05-07T07:58:07;17.69;77.37
75961;SHT30;64644;48.914;2.254;2023-05-07T08:00:32;17.72;77.40
75961;SHT30;64644;48.914;2.254;2023-05-07T08:02:58;17.76;77.38
75961;SHT30;64644;48.914;2.254;2023-05-07T08:05:23;17.78;77.37
75961;SHT30;64644;48.914;2.254;2023-05-07T08:07:48;17.80;77.21
75961;SHT30;64644;48.914;2.254;2023-05-07T08:10:18;17.82;77.24
75961;SHT30;64644;48.914;2.254;2023-05-07T08:12:48;17.83;77.36
75961;SHT30;64644;48.914;2.254;2023-05-07T08:15:14;17.87;77.40
75961;SHT30;64644;48.914;2.254;2023-05-07T08:17:39;17.89;77.11
75961;SHT30;64644;48.914;2.254;2023-05-07T08:20:05;17.90;76.32
75961;SHT30;64644;48.914;2.254;2023-05-07T08:22:31;17.90;76.59
75961;SHT30;64644;48.914;2.254;2023-05-07T08:24:56;17.94;76.60
75961;SHT30;64644;48.914;2.254;2023-05-07T08:27:22;17.99;76.96
75961;SHT30;64644;48.914;2.254;2023-05-07T08:29:47;18.06;76.59
75961;SHT30;64644;48.914;2.254;2023-05-07T08:32:14;18.07;76.65
75961;SHT30;64644;48.914;2.254;2023-05-07T08:34:39;18.13;77.02
75961;SHT30;64644;48.914;2.254;2023-05-07T08:37:05;18.17;76.96
75961;SHT30;64644;48.914;2.254;2023-05-07T08:39:30;18.20;77.01
75961;SHT30;64644;48.914;2.254;2023-05-07T08:41:56;18.23;76.63
75961;SHT30;64644;48.914;2.254;2023-05-07T08:44:23;18.23;76.89
75961;SHT30;64644;48.914;2.254;2023-05-07T08:46:53;18.24;76.74
75961;SHT30;64644;48.914;2.254;2023-05-07T08:49:20;18.27;76.73
75961;SHT30;64644;48.914;2.254;2023-05-07T08:51:46;18.27;76.32
75961;SHT30;64644;48.914;2.254;2023-05-07T08:54:15;18.27;76.50
75961;SHT30;64644;48.914;2.254;2023-05-07T08:56:41;18.30;76.29
75961;SHT30;64644;48.914;2.254;2023-05-07T08:59:06;18.28;76.35
75961;SHT30;64644;48.914;2.254;2023-05-07T09:01:32;18.28;76.24
75961;SHT30;64644;48.914;2.254;2023-05-07T09:03:58;18.28;76.28
75961;SHT30;64644;48.914;2.254;2023-05-07T09:06:23;18.31;76.48
75961;SHT30;64644;48.914;2.254;2023-05-07T09:08:53;18.35;76.58
75961;SHT30;64644;48.914;2.254;2023-05-07T09:11:24;18.34;76.22
75961;SHT30;64644;48.914;2.254;2023-05-07T09:13:55;18.35;76.47
75961;SHT30;64644;48.914;2.254;2023-05-07T09:16:21;18.35;76.62
75961;SHT30;64644;48.914;2.254;2023-05-07T09:18:48;18.40;76.68
75961;SHT30;64644;48.914;2.254;2023-05-07T09:21:16;18.41;76.37
75961;SHT30;64644;48.914;2.254;2023-05-07T09:23:42;18.41;75.89
75961;SHT30;64644;48.914;2.254;2023-05-07T09:26:07;18.45;76.15
75961;SHT30;64644;48.914;2.254;2023-05-07T09:28:41;18.45;76.48
75961;SHT30;64644;48.914;2.254;2023-05-07T09:31:08;18.49;76.69
75961;SHT30;64644;48.914;2.254;2023-05-07T09:33:33;18.52;76.58
75961;SHT30;64644;48.914;2.254;2023-05-07T09:36:02;18.53;76.44
75961;SHT30;64644;48.914;2.254;2023-05-07T09:38:28;18.52;76.15
75961;SHT30;64644;48.914;2.254;2023-05-07T09:41:08;18.55;76.12
75961;SHT30;64644;48.914;2.254;2023-05-07T09:43:35;18.55;76.26
75961;SHT30;64644;48.914;2.254;2023-05-07T09:46:22;18.55;76.27
75961;SHT30;64644;48.914;2.254;2023-05-07T09:48:52;18.56;76.53
75961;SHT30;64644;48.914;2.254;2023-05-07T09:51:36;18.59;76.00
75961;SHT30;64644;48.914;2.254;2023-05-07T09:54:04;18.63;76.14
75961;SHT30;64644;48.914;2.254;2023-05-07T09:56:31;18.65;76.15
75961;SHT30;64644;48.914;2.254;2023-05-07T09:59:00;18.66;76.42
75961;SHT30;64644;48.914;2.254;2023-05-07T10:01:26;18.73;76.49
75961;SHT30;64644;48.914;2.254;2023-05-07T10:03:52;18.77;76.34
75961;SHT30;64644;48.914;2.254;2023-05-07T10:06:20;18.75;76.36
75961;SHT30;64644;48.914;2.254;2023-05-07T10:08:45;18.76;76.41
75961;SHT30;64644;48.914;2.254;2023-05-07T10:11:12;18.80;76.46
75961;SHT30;64644;48.914;2.254;2023-05-07T10:13:37;18.80;76.38
75961;SHT30;64644;48.914;2.254;2023-05-07T10:16:06;18.80;76.46
75961;SHT30;64644;48.914;2.254;2023-05-07T10:18:32;18.83;76.53
75961;SHT30;64644;48.914;2.254;2023-05-07T10:21:10;18.85;76.67
75961;SHT30;64644;48.914;2.254;2023-05-07T10:23:36;18.86;76.77
75961;SHT30;64644;48.914;2.254;2023-05-07T10:26:06;18.86;76.83
75961;SHT30;64644;48.914;2.254;2023-05-07T10:28:37;18.92;76.63
75961;SHT30;64644;48.914;2.254;2023-05-07T10:33:54;18.99;76.51
75961;SHT30;64644;48.914;2.254;2023-05-07T10:36:22;18.95;76.44
75961;SHT30;64644;48.914;2.254;2023-05-07T10:38:47;18.95;76.44
75961;SHT30;64644;48.914;2.254;2023-05-07T10:41:13;18.99;76.56
75961;SHT30;64644;48.914;2.254;2023-05-07T10:43:41;19.02;76.67
75961;SHT30;64644;48.914;2.254;2023-05-07T10:46:25;19.04;76.83
75961;SHT30;64644;48.914;2.254;2023-05-07T10:51:29;19.13;76.79
75961;SHT30;64644;48.914;2.254;2023-05-07T10:56:43;19.21;76.67
75961;SHT30;64644;48.914;2.254;2023-05-07T11:02:04;19.54;76.17
75961;SHT30;64644;48.914;2.254;2023-05-07T11:04:32;19.75;75.70
75961;SHT30;64644;48.914;2.254;2023-05-07T11:15:07;20.28;73.81
75961;SHT30;64644;48.914;2.254;2023-05-07T11:17:55;20.28;72.70
75961;SHT30;64644;48.914;2.254;2023-05-07T11:20:47;20.30;72.22
75961;SHT30;64644;48.914;2.254;2023-05-07T11:26:09;20.41;73.06
75961;SHT30;64644;48.914;2.254;2023-05-07T11:28:40;20.41;72.51
75961;SHT30;64644;48.914;2.254;2023-05-07T11:31:05;20.41;71.88
75961;SHT30;64644;48.914;2.254;2023-05-07T11:33:31;20.34;71.75
75961;SHT30;64644;48.914;2.254;2023-05-07T11:35:57;20.31;72.21
75961;SHT30;64644;48.914;2.254;2023-05-07T11:38:24;20.30;72.23
75961;SHT30;64644;48.914;2.254;2023-05-07T11:43:16;20.30;73.43
75961;SHT30;64644;48.914;2.254;2023-05-07T11:45:41;20.30;73.43
75961;SHT30;64644;48.914;2.254;2023-05-07T11:48:06;20.30;74.02
75961;SHT30;64644;48.914;2.254;2023-05-07T11:50:32;20.28;73.87
75961;SHT30;64644;48.914;2.254;2023-05-07T11:52:57;20.28;74.09
75961;SHT30;64644;48.914;2.254;2023-05-07T11:55:24;20.31;74.38
75961;SHT30;64644;48.914;2.254;2023-05-07T11:57:51;20.34;74.33
75961;SHT30;64644;48.914;2.254;2023-05-07T12:00:16;20.35;74.34
75961;SHT30;64644;48.914;2.254;2023-05-07T12:02:42;20.38;74.51
75961;SHT30;64644;48.914;2.254;2023-05-07T12:05:08;20.39;74.46
75961;SHT30;64644;48.914;2.254;2023-05-07T12:07:34;20.39;74.37
75961;SHT30;64644;48.914;2.254;2023-05-07T12:09:59;20.42;74.07
75961;SHT30;64644;48.914;2.254;2023-05-07T12:12:29;20.41;73.79
75961;SHT30;64644;48.914;2.254;2023-05-07T12:14:54;20.35;73.83
75961;SHT30;64644;48.914;2.254;2023-05-07T12:17:20;20.34;73.60
75961;SHT30;64644;48.914;2.254;2023-05-07T12:19:46;20.31;73.71
75961;SHT30;64644;48.914;2.254;2023-05-07T12:22:12;20.30;73.97
75961;SHT30;64644;48.914;2.254;2023-05-07T12:24:49;20.28;73.89
75961;SHT30;64644;48.914;2.254;2023-05-07T12:27:15;20.32;74.05
75961;SHT30;64644;48.914;2.254;2023-05-07T12:29:48;20.35;74.14
75961;SHT30;64644;48.914;2.254;2023-05-07T12:32:18;20.37;74.06
75961;SHT30;64644;48.914;2.254;2023-05-07T12:34:45;20.35;73.80
75961;SHT30;64644;48.914;2.254;2023-05-07T12:37:11;20.35;73.41
75961;SHT30;64644;48.914;2.254;2023-05-07T12:39:38;20.35;73.43
75961;SHT30;64644;48.914;2.254;2023-05-07T12:42:03;20.30;73.60
75961;SHT30;64644;48.914;2.254;2023-05-07T12:44:32;20.30;73.57
75961;SHT30;64644;48.914;2.254;2023-05-07T12:46:58;20.25;72.90
75961;SHT30;64644;48.914;2.254;2023-05-07T12:49:24;20.21;72.65
75961;SHT30;64644;48.914;2.254;2023-05-07T12:51:50;20.18;72.90
75961;SHT30;64644;48.914;2.254;2023-05-07T12:54:29;20.16;73.30
75961;SHT30;64644;48.914;2.254;2023-05-07T12:57:13;20.11;72.72
75961;SHT30;64644;48.914;2.254;2023-05-07T12:59:40;20.06;72.35
75961;SHT30;64644;48.914;2.254;2023-05-07T13:02:06;20.04;73.27
75961;SHT30;64644;48.914;2.254;2023-05-07T13:04:32;20.01;73.56
75961;SHT30;64644;48.914;2.254;2023-05-07T13:06:59;19.96;73.89
75961;SHT30;64644;48.914;2.254;2023-05-07T13:09:24;19.92;73.84
75961;SHT30;64644;48.914;2.254;2023-05-07T13:11:50;19.87;74.13
75961;SHT30;64644;48.914;2.254;2023-05-07T13:14:15;19.83;73.90
75961;SHT30;64644;48.914;2.254;2023-05-07T13:16:40;19.70;73.44
75961;SHT30;64644;48.914;2.254;2023-05-07T13:19:06;19.62;73.90
75961;SHT30;64644;48.914;2.254;2023-05-07T13:21:31;19.61;74.29
75961;SHT30;64644;48.914;2.254;2023-05-07T13:23:58;19.55;73.98
75961;SHT30;64644;48.914;2.254;2023-05-07T13:26:23;19.51;74.25
75961;SHT30;64644;48.914;2.254;2023-05-07T13:28:49;19.49;74.60
75961;SHT30;64644;48.914;2.254;2023-05-07T13:31:15;19.47;74.53
75961;SHT30;64644;48.914;2.254;2023-05-07T13:33:40;19.41;74.56
75961;SHT30;64644;48.914;2.254;2023-05-07T13:36:05;19.35;74.70
75961;SHT30;64644;48.914;2.254;2023-05-07T13:38:31;19.34;74.94
75961;SHT30;64644;48.914;2.254;2023-05-07T13:40:57;19.32;74.85
75961;SHT30;64644;48.914;2.254;2023-05-07T13:43:24;19.30;74.89
75961;SHT30;64644;48.914;2.254;2023-05-07T13:45:49;19.27;75.07
75961;SHT30;64644;48.914;2.254;2023-05-07T13:48:15;19.25;75.35
75961;SHT30;64644;48.914;2.254;2023-05-07T13:50:40;19.25;75.16
75961;SHT30;64644;48.914;2.254;2023-05-07T13:53:07;19.27;75.55
75961;SHT30;64644;48.914;2.254;2023-05-07T13:55:33;19.30;75.48
75961;SHT30;64644;48.914;2.254;2023-05-07T13:58:00;19.28;75.54
75961;SHT30;64644;48.914;2.254;2023-05-07T14:00:28;19.28;75.19
75961;SHT30;64644;48.914;2.254;2023-05-07T14:02:55;19.25;75.97
75961;SHT30;64644;48.914;2.254;2023-05-07T14:05:20;19.35;75.55
75961;SHT30;64644;48.914;2.254;2023-05-07T14:07:48;19.38;76.00
75961;SHT30;64644;48.914;2.254;2023-05-07T14:10:17;19.47;75.97
75961;SHT30;64644;48.914;2.254;2023-05-07T14:12:44;19.63;76.54
75961;SHT30;64644;48.914;2.254;2023-05-07T14:15:10;19.87;76.74
75961;SHT30;64644;48.914;2.254;2023-05-07T14:17:35;20.22;76.33
75961;SHT30;64644;48.914;2.254;2023-05-07T14:20:00;20.61;76.00
75961;SHT30;64644;48.914;2.254;2023-05-07T14:22:26;21.10;75.64
75961;SHT30;64644;48.914;2.254;2023-05-07T14:24:52;21.49;74.38
75961;SHT30;64644;48.914;2.254;2023-05-07T14:27:17;21.83;74.21
75961;SHT30;64644;48.914;2.254;2023-05-07T14:29:42;22.10;73.97
75961;SHT30;64644;48.914;2.254;2023-05-07T14:32:08;22.37;73.30
75961;SHT30;64644;48.914;2.254;2023-05-07T14:34:33;22.58;72.60
75961;SHT30;64644;48.914;2.254;2023-05-07T14:37:00;22.72;71.88
75961;SHT30;64644;48.914;2.254;2023-05-07T14:39:25;22.76;71.25
75961;SHT30;64644;48.914;2.254;2023-05-07T14:41:51;22.75;71.00
75961;SHT30;64644;48.914;2.254;2023-05-07T14:44:17;22.63;70.42
75961;SHT30;64644;48.914;2.254;2023-05-07T14:46:42;22.51;70.32
75961;SHT30;64644;48.914;2.254;2023-05-07T14:49:07;22.37;69.83
75961;SHT30;64644;48.914;2.254;2023-05-07T14:51:41;22.14;70.28
75961;SHT30;64644;48.914;2.254;2023-05-07T14:54:07;21.98;70.73
75961;SHT30;64644;48.914;2.254;2023-05-07T14:56:32;21.83;70.73
75961;SHT30;64644;48.914;2.254;2023-05-07T14:58:57;21.69;70.95
75961;SHT30;64644;48.914;2.254;2023-05-07T15:01:25;21.56;71.15
75961;SHT30;64644;48.914;2.254;2023-05-07T15:03:50;21.38;71.10
75961;SHT30;64644;48.914;2.254;2023-05-07T15:06:15;21.24;71.19
75961;SHT30;64644;48.914;2.254;2023-05-07T15:08:41;21.08;71.27
75961;SHT30;64644;48.914;2.254;2023-05-07T15:11:06;20.96;71.52
75961;SHT30;64644;48.914;2.254;2023-05-07T15:13:31;20.83;71.60
75961;SHT30;64644;48.914;2.254;2023-05-07T15:15:57;20.71;71.72
75961;SHT30;64644;48.914;2.254;2023-05-07T15:18:23;20.58;71.92
75961;SHT30;64644;48.914;2.254;2023-05-07T15:20:48;20.47;72.27
75961;SHT30;64644;48.914;2.254;2023-05-07T15:23:13;20.38;72.54
75961;SHT30;64644;48.914;2.254;2023-05-07T15:25:39;20.34;72.74
75961;SHT30;64644;48.914;2.254;2023-05-07T15:28:05;20.24;72.76
75961;SHT30;64644;48.914;2.254;2023-05-07T15:30:30;20.20;72.92
75961;SHT30;64644;48.914;2.254;2023-05-07T15:32:56;20.16;73.31
75961;SHT30;64644;48.914;2.254;2023-05-07T15:35:21;20.13;73.46
75961;SHT30;64644;48.914;2.254;2023-05-07T15:37:50;20.14;73.52
75961;SHT30;64644;48.914;2.254;2023-05-07T15:40:15;20.10;73.76
75961;SHT30;64644;48.914;2.254;2023-05-07T15:42:41;20.09;73.86
75961;SHT30;64644;48.914;2.254;2023-05-07T15:45:07;20.07;73.62
75961;SHT30;64644;48.914;2.254;2023-05-07T15:47:33;20.09;73.82
75961;SHT30;64644;48.914;2.254;2023-05-07T15:50:00;20.09;74.00